sensor_id;sensor_type;location;lat;lon;timestamp;P1;durP1;ratioP1;P2;durP2;ratioP2
47894;SDS011;33653;52.302;8.134;2023-08-31T00:02:01;5.22;;;3.08;;
47894;SDS011;33653;52.302;8.134;2023-08-31T00:04:33;6.15;;;3.60;;
47894;SDS011;33653;52.302;8.134;2023-08-31T00:07:01;5.03;;;3.97;;
47894;SDS011;33653;52.302;8.134;2023-08-31T00:12:36;4.82;;;3.60;;
47894;SDS011;33653;52.302;8.134;2023-08-31T00:15:13;5.85;;;3.30;;
47894;SDS011;33653;52.302;8.134;2023-08-31T00:17:41;5.25;;;2.92;;
47894;SDS011;33653;52.302;8.134;2023-08-31T00:20:16;5.13;;;3.30;;
47894;SDS011;33653;52.302;8.134;2023-08-31T00:22:48;6.65;;;3.83;;
47894;SDS011;33653;52.302;8.134;2023-08-31T00:28:10;4.93;;;3.30;;
47894;SDS011;33653;52.302;8.134;2023-08-31T00:30:38;5.82;;;3.55;;
47894;SDS011;33653;52.302;8.134;2023-08-31T00:33:13;5.40;;;3.25;;
47894;SDS011;33653;52.302;8.134;2023-08-31T00:35:42;4.30;;;3.33;;
47894;SDS011;33653;52.302;8.134;2023-08-31T00:38:14;7.25;;;4.68;;
47894;SDS011;33653;52.302;8.134;2023-08-31T00:40:42;4.47;;;3.20;;
47894;SDS011;33653;52.302;8.134;2023-08-31T00:43:18;5.27;;;3.37;;
47894;SDS011;33653;52.302;8.134;2023-08-31T00:45:53;6.25;;;3.17;;
47894;SDS011;33653;52.302;8.134;2023-08-31T00:48:25;9.07;;;4.30;;
47894;SDS011;33653;52.302;8.134;2023-08-31T00:50:55;5.65;;;3.55;;
47894;SDS011;33653;52.302;8.134;2023-08-31T00:53:29;6.50;;;3.45;;
47894;SDS011;33653;52.302;8.134;2023-08-31T00:56:00;8.27;;;3.08;;
47894;SDS011;33653;52.302;8.134;2023-08-31T00:58:32;5.88;;;3.60;;
47894;SDS011;33653;52.302;8.134;2023-08-31T01:01:16;6.97;;;3.63;;
47894;SDS011;33653;52.302;8.134;2023-08-31T01:11:19;5.38;;;3.10;;
47894;SDS011;33653;52.302;8.134;2023-08-31T01:14:19;4.40;;;2.83;;
47894;SDS011;33653;52.302;8.134;2023-08-31T01:17:03;7.47;;;3.17;;
47894;SDS011;33653;52.302;8.134;2023-08-31T01:23:46;8.27;;;4.03;;
47894;SDS011;33653;52.302;8.134;2023-08-31T01:26:32;6.55;;;3.15;;
47894;SDS011;33653;52.302;8.134;2023-08-31T01:29:00;6.20;;;2.80;;
47894;SDS011;33653;52.302;8.134;2023-08-31T01:31:28;8.52;;;3.83;;
47894;SDS011;33653;52.302;8.134;2023-08-31T01:34:02;6.18;;;3.33;;
47894;SDS011;33653;52.302;8.134;2023-08-31T01:37:11;7.00;;;3.47;;
47894;SDS011;33653;52.302;8.134;2023-08-31T01:40:49;5.47;;;3.53;;
47894;SDS011;33653;52.302;8.134;2023-08-31T01:43:45;5.53;;;3.13;;
47894;SDS011;33653;52.302;8.134;2023-08-31T01:46:17;7.28;;;3.75;;
47894;SDS011;33653;52.302;8.134;2023-08-31T01:48:45;6.22;;;3.95;;
47894;SDS011;33653;52.302;8.134;2023-08-31T01:51:19;6.05;;;3.78;;
47894;SDS011;33653;52.302;8.134;2023-08-31T01:53:47;6.72;;;3.85;;
47894;SDS011;33653;52.302;8.134;2023-08-31T01:56:21;8.38;;;3.75;;
47894;SDS011;33653;52.302;8.134;2023-08-31T02:01:48;4.75;;;3.70;;
47894;SDS011;33653;52.302;8.134;2023-08-31T02:04:33;5.15;;;3.40;;
47894;SDS011;33653;52.302;8.134;2023-08-31T02:07:04;8.75;;;3.60;;
47894;SDS011;33653;52.302;8.134;2023-08-31T02:09:35;5.88;;;3.63;;
47894;SDS011;33653;52.302;8.134;2023-08-31T02:12:04;5.10;;;3.25;;
47894;SDS011;33653;52.302;8.134;2023-08-31T02:17:37;5.97;;;2.70;;
47894;SDS011;33653;52.302;8.134;2023-08-31T02:20:12;4.30;;;2.97;;
47894;SDS011;33653;52.302;8.134;2023-08-31T02:22:41;5.10;;;3.33;;
47894;SDS011;33653;52.302;8.134;2023-08-31T02:25:27;4.10;;;3.17;;
47894;SDS011;33653;52.302;8.134;2023-08-31T02:28:01;5.00;;;3.00;;
47894;SDS011;33653;52.302;8.134;2023-08-31T02:30:29;5.47;;;3.70;;
47894;SDS011;33653;52.302;8.134;2023-08-31T02:33:00;5.32;;;3.55;;
47894;SDS011;33653;52.302;8.134;2023-08-31T02:41:02;7.55;;;3.63;;
47894;SDS011;33653;52.302;8.134;2023-08-31T02:43:32;7.20;;;3.92;;
47894;SDS011;33653;52.302;8.134;2023-08-31T02:46:09;6.50;;;4.45;;
47894;SDS011;33653;52.302;8.134;2023-08-31T02:48:41;5.55;;;4.53;;
47894;SDS011;33653;52.302;8.134;2023-08-31T02:51:12;6.18;;;3.80;;
47894;SDS011;33653;52.302;8.134;2023-08-31T02:56:08;5.85;;;3.92;;
47894;SDS011;33653;52.302;8.134;2023-08-31T02:58:36;7.35;;;4.25;;
47894;SDS011;33653;52.302;8.134;2023-08-31T03:01:14;7.85;;;4.45;;
47894;SDS011;33653;52.302;8.134;2023-08-31T03:03:52;5.43;;;4.03;;
47894;SDS011;33653;52.302;8.134;2023-08-31T03:09:26;6.22;;;4.22;;
47894;SDS011;33653;52.302;8.134;2023-08-31T03:11:54;9.25;;;4.20;;
47894;SDS011;33653;52.302;8.134;2023-08-31T03:14:22;10.05;;;4.28;;
47894;SDS011;33653;52.302;8.134;2023-08-31T03:16:54;9.75;;;4.07;;
47894;SDS011;33653;52.302;8.134;2023-08-31T03:22:04;6.82;;;3.65;;
47894;SDS011;33653;52.302;8.134;2023-08-31T03:24:32;6.57;;;3.53;;
47894;SDS011;33653;52.302;8.134;2023-08-31T03:27:11;5.32;;;4.05;;
47894;SDS011;33653;52.302;8.134;2023-08-31T03:29:54;9.85;;;4.45;;
47894;SDS011;33653;52.302;8.134;2023-08-31T03:32:38;6.05;;;3.63;;
47894;SDS011;33653;52.302;8.134;2023-08-31T03:35:20;6.57;;;4.40;;
47894;SDS011;33653;52.302;8.134;2023-08-31T03:38:07;8.82;;;3.58;;
47894;SDS011;33653;52.302;8.134;2023-08-31T03:43:49;6.13;;;4.18;;
47894;SDS011;33653;52.302;8.134;2023-08-31T03:46:30;7.57;;;4.07;;
47894;SDS011;33653;52.302;8.134;2023-08-31T03:49:02;7.18;;;3.88;;
47894;SDS011;33653;52.302;8.134;2023-08-31T03:54:01;4.85;;;3.42;;
47894;SDS011;33653;52.302;8.134;2023-08-31T03:59:33;7.43;;;3.80;;
47894;SDS011;33653;52.302;8.134;2023-08-31T04:02:05;9.63;;;3.80;;
47894;SDS011;33653;52.302;8.134;2023-08-31T04:04:33;11.90;;;4.70;;
47894;SDS011;33653;52.302;8.134;2023-08-31T04:07:01;8.15;;;4.85;;
47894;SDS011;33653;52.302;8.134;2023-08-31T04:09:32;8.77;;;4.87;;
47894;SDS011;33653;52.302;8.134;2023-08-31T04:12:03;5.97;;;4.57;;
47894;SDS011;33653;52.302;8.134;2023-08-31T04:14:32;8.43;;;5.13;;
47894;SDS011;33653;52.302;8.134;2023-08-31T04:17:00;7.68;;;5.00;;
47894;SDS011;33653;52.302;8.134;2023-08-31T04:19:37;8.98;;;5.10;;
47894;SDS011;33653;52.302;8.134;2023-08-31T04:22:05;7.43;;;4.35;;
47894;SDS011;33653;52.302;8.134;2023-08-31T04:24:34;9.88;;;4.68;;
47894;SDS011;33653;52.302;8.134;2023-08-31T04:27:07;13.05;;;5.07;;
47894;SDS011;33653;52.302;8.134;2023-08-31T04:29:35;8.15;;;5.70;;
47894;SDS011;33653;52.302;8.134;2023-08-31T04:32:04;7.75;;;5.88;;
47894;SDS011;33653;52.302;8.134;2023-08-31T04:34:32;8.95;;;5.78;;
47894;SDS011;33653;52.302;8.134;2023-08-31T04:37:10;8.07;;;5.82;;
47894;SDS011;33653;52.302;8.134;2023-08-31T04:39:47;7.90;;;5.40;;
47894;SDS011;33653;52.302;8.134;2023-08-31T04:45:10;10.75;;;6.10;;
47894;SDS011;33653;52.302;8.134;2023-08-31T04:47:43;9.68;;;5.85;;
47894;SDS011;33653;52.302;8.134;2023-08-31T04:50:18;11.13;;;6.30;;
47894;SDS011;33653;52.302;8.134;2023-08-31T04:52:46;11.27;;;6.38;;
47894;SDS011;33653;52.302;8.134;2023-08-31T04:55:18;11.18;;;7.10;;
47894;SDS011;33653;52.302;8.134;2023-08-31T04:57:50;10.40;;;6.97;;
47894;SDS011;33653;52.302;8.134;2023-08-31T05:00:21;10.45;;;7.50;;
47894;SDS011;33653;52.302;8.134;2023-08-31T05:05:55;11.57;;;6.47;;
47894;SDS011;33653;52.302;8.134;2023-08-31T05:08:26;10.70;;;8.35;;
47894;SDS011;33653;52.302;8.134;2023-08-31T05:10:55;9.43;;;6.90;;
47894;SDS011;33653;52.302;8.134;2023-08-31T05:13:27;11.95;;;8.02;;
47894;SDS011;33653;52.302;8.134;2023-08-31T05:16:01;12.50;;;8.07;;
47894;SDS011;33653;52.302;8.134;2023-08-31T05:18:30;12.70;;;8.45;;
47894;SDS011;33653;52.302;8.134;2023-08-31T05:24:21;12.45;;;8.65;;
47894;SDS011;33653;52.302;8.134;2023-08-31T05:29:59;12.63;;;8.23;;
47894;SDS011;33653;52.302;8.134;2023-08-31T05:35:53;11.88;;;8.05;;
47894;SDS011;33653;52.302;8.134;2023-08-31T05:38:21;11.43;;;7.95;;
47894;SDS011;33653;52.302;8.134;2023-08-31T05:41:06;12.13;;;8.48;;
47894;SDS011;33653;52.302;8.134;2023-08-31T05:43:36;20.55;;;8.02;;
47894;SDS011;33653;52.302;8.134;2023-08-31T05:46:09;11.65;;;8.43;;
47894;SDS011;33653;52.302;8.134;2023-08-31T05:48:41;15.85;;;8.93;;
47894;SDS011;33653;52.302;8.134;2023-08-31T05:51:16;11.77;;;8.25;;
47894;SDS011;33653;52.302;8.134;2023-08-31T05:53:50;12.18;;;7.63;;
47894;SDS011;33653;52.302;8.134;2023-08-31T05:56:19;9.70;;;7.45;;
47894;SDS011;33653;52.302;8.134;2023-08-31T05:58:47;10.15;;;7.57;;
47894;SDS011;33653;52.302;8.134;2023-08-31T06:01:26;13.13;;;8.32;;
47894;SDS011;33653;52.302;8.134;2023-08-31T06:03:54;12.57;;;7.03;;
47894;SDS011;33653;52.302;8.134;2023-08-31T06:06:26;14.35;;;7.18;;
47894;SDS011;33653;52.302;8.134;2023-08-31T06:08:54;10.77;;;7.15;;
47894;SDS011;33653;52.302;8.134;2023-08-31T06:11:28;10.45;;;6.88;;
47894;SDS011;33653;52.302;8.134;2023-08-31T06:13:57;10.45;;;7.53;;
47894;SDS011;33653;52.302;8.134;2023-08-31T06:30:45;10.07;;;6.53;;
47894;SDS011;33653;52.302;8.134;2023-08-31T06:33:19;8.10;;;6.13;;
47894;SDS011;33653;52.302;8.134;2023-08-31T06:35:48;9.00;;;6.32;;
47894;SDS011;33653;52.302;8.134;2023-08-31T06:38:24;8.30;;;5.90;;
47894;SDS011;33653;52.302;8.134;2023-08-31T06:40:55;9.85;;;6.72;;
47894;SDS011;33653;52.302;8.134;2023-08-31T06:43:51;9.65;;;6.25;;
47894;SDS011;33653;52.302;8.134;2023-08-31T06:46:19;11.73;;;6.35;;
47894;SDS011;33653;52.302;8.134;2023-08-31T06:49:04;7.85;;;5.97;;
47894;SDS011;33653;52.302;8.134;2023-08-31T06:51:37;8.38;;;5.68;;
47894;SDS011;33653;52.302;8.134;2023-08-31T06:54:08;7.90;;;6.10;;
47894;SDS011;33653;52.302;8.134;2023-08-31T06:59:41;9.07;;;6.32;;
47894;SDS011;33653;52.302;8.134;2023-08-31T07:08:57;9.23;;;6.07;;
47894;SDS011;33653;52.302;8.134;2023-08-31T07:11:25;7.68;;;5.90;;
47894;SDS011;33653;52.302;8.134;2023-08-31T07:13:54;9.25;;;6.00;;
47894;SDS011;33653;52.302;8.134;2023-08-31T07:16:51;10.23;;;6.80;;
47894;SDS011;33653;52.302;8.134;2023-08-31T07:19:41;7.90;;;6.10;;
47894;SDS011;33653;52.302;8.134;2023-08-31T07:22:12;7.88;;;6.07;;
47894;SDS011;33653;52.302;8.134;2023-08-31T07:31:27;10.93;;;7.03;;
47894;SDS011;33653;52.302;8.134;2023-08-31T07:33:55;9.75;;;7.00;;
47894;SDS011;33653;52.302;8.134;2023-08-31T07:36:30;9.93;;;6.40;;
47894;SDS011;33653;52.302;8.134;2023-08-31T07:42:00;13.82;;;7.18;;
47894;SDS011;33653;52.302;8.134;2023-08-31T07:47:36;10.50;;;6.85;;
47894;SDS011;33653;52.302;8.134;2023-08-31T07:50:08;9.15;;;6.75;;
47894;SDS011;33653;52.302;8.134;2023-08-31T07:52:39;13.07;;;8.00;;
47894;SDS011;33653;52.302;8.134;2023-08-31T07:58:34;7.95;;;6.63;;
47894;SDS011;33653;52.302;8.134;2023-08-31T08:01:05;10.95;;;7.55;;
47894;SDS011;33653;52.302;8.134;2023-08-31T08:03:34;9.35;;;7.30;;
47894;SDS011;33653;52.302;8.134;2023-08-31T08:06:15;10.10;;;7.75;;
47894;SDS011;33653;52.302;8.134;2023-08-31T08:11:45;11.23;;;7.20;;
47894;SDS011;33653;52.302;8.134;2023-08-31T08:29:04;11.00;;;6.82;;
47894;SDS011;33653;52.302;8.134;2023-08-31T08:40:30;9.52;;;6.20;;
47894;SDS011;33653;52.302;8.134;2023-08-31T08:43:02;9.68;;;6.80;;
47894;SDS011;33653;52.302;8.134;2023-08-31T08:45:55;10.32;;;6.63;;
47894;SDS011;33653;52.302;8.134;2023-08-31T08:51:49;11.35;;;6.80;;
47894;SDS011;33653;52.302;8.134;2023-08-31T08:54:22;7.85;;;6.20;;
47894;SDS011;33653;52.302;8.134;2023-08-31T08:56:56;9.68;;;6.43;;
47894;SDS011;33653;52.302;8.134;2023-08-31T09:02:19;9.02;;;5.97;;
47894;SDS011;33653;52.302;8.134;2023-08-31T09:13:59;6.20;;;4.40;;
47894;SDS011;33653;52.302;8.134;2023-08-31T09:25:22;7.18;;;4.57;;
47894;SDS011;33653;52.302;8.134;2023-08-31T09:27:50;7.75;;;4.60;;
47894;SDS011;33653;52.302;8.134;2023-08-31T09:33:24;8.93;;;5.22;;
47894;SDS011;33653;52.302;8.134;2023-08-31T09:42:11;12.02;;;5.07;;
47894;SDS011;33653;52.302;8.134;2023-08-31T09:47:43;5.68;;;4.07;;
47894;SDS011;33653;52.302;8.134;2023-08-31T09:54:00;5.50;;;3.53;;
47894;SDS011;33653;52.302;8.134;2023-08-31T09:56:34;6.20;;;3.88;;
47894;SDS011;33653;52.302;8.134;2023-08-31T09:59:26;6.05;;;3.25;;
47894;SDS011;33653;52.302;8.134;2023-08-31T10:01:58;4.45;;;2.95;;
47894;SDS011;33653;52.302;8.134;2023-08-31T10:04:29;3.47;;;2.83;;
47894;SDS011;33653;52.302;8.134;2023-08-31T10:06:59;4.25;;;3.05;;
47894;SDS011;33653;52.302;8.134;2023-08-31T10:09:49;9.60;;;3.45;;
47894;SDS011;33653;52.302;8.134;2023-08-31T10:12:19;4.43;;;2.63;;
47894;SDS011;33653;52.302;8.134;2023-08-31T10:17:47;4.35;;;2.47;;
47894;SDS011;33653;52.302;8.134;2023-08-31T10:20:20;3.95;;;2.50;;
47894;SDS011;33653;52.302;8.134;2023-08-31T10:22:48;3.17;;;1.88;;
47894;SDS011;33653;52.302;8.134;2023-08-31T10:25:20;2.95;;;1.95;;
47894;SDS011;33653;52.302;8.134;2023-08-31T10:27:59;2.55;;;2.03;;
47894;SDS011;33653;52.302;8.134;2023-08-31T10:33:58;2.78;;;1.70;;
47894;SDS011;33653;52.302;8.134;2023-08-31T10:36:38;2.08;;;1.60;;
47894;SDS011;33653;52.302;8.134;2023-08-31T10:39:16;1.90;;;1.50;;
47894;SDS011;33653;52.302;8.134;2023-08-31T10:41:54;3.60;;;1.60;;
47894;SDS011;33653;52.302;8.134;2023-08-31T10:44:41;2.58;;;1.50;;
47894;SDS011;33653;52.302;8.134;2023-08-31T10:47:14;4.47;;;1.45;;
47894;SDS011;33653;52.302;8.134;2023-08-31T10:49:50;1.33;;;1.00;;
47894;SDS011;33653;52.302;8.134;2023-08-31T10:52:20;2.90;;;1.08;;
47894;SDS011;33653;52.302;8.134;2023-08-31T10:57:59;2.38;;;1.40;;
47894;SDS011;33653;52.302;8.134;2023-08-31T11:00:46;1.90;;;1.20;;
47894;SDS011;33653;52.302;8.134;2023-08-31T11:03:24;1.90;;;1.25;;
47894;SDS011;33653;52.302;8.134;2023-08-31T11:05:54;2.45;;;1.23;;
47894;SDS011;33653;52.302;8.134;2023-08-31T11:08:31;2.50;;;1.15;;
47894;SDS011;33653;52.302;8.134;2023-08-31T11:14:34;1.73;;;1.40;;
47894;SDS011;33653;52.302;8.134;2023-08-31T11:25:55;4.22;;;1.33;;
47894;SDS011;33653;52.302;8.134;2023-08-31T11:28:25;1.40;;;1.30;;
47894;SDS011;33653;52.302;8.134;2023-08-31T11:31:03;1.60;;;1.10;;
47894;SDS011;33653;52.302;8.134;2023-08-31T11:33:34;1.63;;;0.90;;
47894;SDS011;33653;52.302;8.134;2023-08-31T11:36:25;7.18;;;1.42;;
47894;SDS011;33653;52.302;8.134;2023-08-31T11:38:54;1.60;;;1.10;;
47894;SDS011;33653;52.302;8.134;2023-08-31T11:41:24;1.45;;;1.10;;
47894;SDS011;33653;52.302;8.134;2023-08-31T11:46:30;2.85;;;1.60;;
47894;SDS011;33653;52.302;8.134;2023-08-31T11:49:02;2.95;;;1.67;;
47894;SDS011;33653;52.302;8.134;2023-08-31T11:51:42;2.55;;;0.90;;
47894;SDS011;33653;52.302;8.134;2023-08-31T11:57:11;2.78;;;1.10;;
47894;SDS011;33653;52.302;8.134;2023-08-31T11:59:46;1.20;;;1.10;;
47894;SDS011;33653;52.302;8.134;2023-08-31T12:02:19;2.28;;;1.05;;
47894;SDS011;33653;52.302;8.134;2023-08-31T12:04:53;3.42;;;0.88;;
47894;SDS011;33653;52.302;8.134;2023-08-31T12:07:24;1.67;;;1.13;;
47894;SDS011;33653;52.302;8.134;2023-08-31T12:10:15;1.30;;;1.00;;
47894;SDS011;33653;52.302;8.134;2023-08-31T12:12:43;0.93;;;0.90;;
47894;SDS011;33653;52.302;8.134;2023-08-31T12:17:42;2.05;;;0.80;;
47894;SDS011;33653;52.302;8.134;2023-08-31T12:24:28;2.50;;;1.25;;
47894;SDS011;33653;52.302;8.134;2023-08-31T12:27:27;1.60;;;0.80;;
47894;SDS011;33653;52.302;8.134;2023-08-31T12:30:14;1.38;;;0.82;;
47894;SDS011;33653;52.302;8.134;2023-08-31T12:32:48;5.30;;;1.10;;
47894;SDS011;33653;52.302;8.134;2023-08-31T12:35:16;1.58;;;1.08;;
47894;SDS011;33653;52.302;8.134;2023-08-31T12:37:45;2.95;;;1.30;;
47894;SDS011;33653;52.302;8.134;2023-08-31T12:40:23;2.80;;;1.55;;
47894;SDS011;33653;52.302;8.134;2023-08-31T12:45:39;2.85;;;1.75;;
47894;SDS011;33653;52.302;8.134;2023-08-31T12:48:10;3.70;;;1.40;;
47894;SDS011;33653;52.302;8.134;2023-08-31T12:50:39;4.68;;;1.38;;
47894;SDS011;33653;52.302;8.134;2023-08-31T12:53:15;2.25;;;1.13;;
47894;SDS011;33653;52.302;8.134;2023-08-31T12:55:44;4.85;;;1.20;;
47894;SDS011;33653;52.302;8.134;2023-08-31T12:58:21;3.45;;;1.10;;
47894;SDS011;33653;52.302;8.134;2023-08-31T13:00:49;2.80;;;1.30;;
47894;SDS011;33653;52.302;8.134;2023-08-31T13:05:56;1.80;;;1.10;;
47894;SDS011;33653;52.302;8.134;2023-08-31T13:08:40;1.85;;;1.00;;
47894;SDS011;33653;52.302;8.134;2023-08-31T13:11:09;3.17;;;1.20;;
47894;SDS011;33653;52.302;8.134;2023-08-31T13:16:44;1.27;;;0.80;;
47894;SDS011;33653;52.302;8.134;2023-08-31T13:22:06;1.10;;;0.90;;
47894;SDS011;33653;52.302;8.134;2023-08-31T13:24:42;4.60;;;1.40;;
47894;SDS011;33653;52.302;8.134;2023-08-31T13:27:17;2.53;;;0.90;;
47894;SDS011;33653;52.302;8.134;2023-08-31T13:29:47;3.13;;;0.77;;
47894;SDS011;33653;52.302;8.134;2023-08-31T13:32:24;2.28;;;1.20;;
47894;SDS011;33653;52.302;8.134;2023-08-31T13:34:57;3.33;;;1.30;;
47894;SDS011;33653;52.302;8.134;2023-08-31T13:37:26;2.60;;;1.20;;
47894;SDS011;33653;52.302;8.134;2023-08-31T13:39:55;2.30;;;1.00;;
47894;SDS011;33653;52.302;8.134;2023-08-31T13:42:35;3.80;;;0.80;;
47894;SDS011;33653;52.302;8.134;2023-08-31T13:45:07;6.78;;;1.10;;
47894;SDS011;33653;52.302;8.134;2023-08-31T13:47:36;2.00;;;0.90;;
47894;SDS011;33653;52.302;8.134;2023-08-31T13:50:05;2.78;;;0.90;;
47894;SDS011;33653;52.302;8.134;2023-08-31T13:52:40;2.58;;;0.95;;
47894;SDS011;33653;52.302;8.134;2023-08-31T13:58:09;2.38;;;0.63;;
47894;SDS011;33653;52.302;8.134;2023-08-31T14:00:46;1.52;;;0.90;;
47894;SDS011;33653;52.302;8.134;2023-08-31T14:03:19;2.75;;;0.60;;
47894;SDS011;33653;52.302;8.134;2023-08-31T14:05:47;0.90;;;0.60;;
47894;SDS011;33653;52.302;8.134;2023-08-31T14:08:16;2.15;;;0.73;;
47894;SDS011;33653;52.302;8.134;2023-08-31T14:10:48;2.95;;;0.80;;
47894;SDS011;33653;52.302;8.134;2023-08-31T14:13:19;1.75;;;0.98;;
47894;SDS011;33653;52.302;8.134;2023-08-31T14:15:53;2.10;;;0.80;;
47894;SDS011;33653;52.302;8.134;2023-08-31T14:18:25;0.98;;;0.60;;
47894;SDS011;33653;52.302;8.134;2023-08-31T14:20:56;0.50;;;0.50;;
47894;SDS011;33653;52.302;8.134;2023-08-31T14:23:26;1.10;;;0.70;;
47894;SDS011;33653;52.302;8.134;2023-08-31T14:26:00;1.00;;;0.55;;
47894;SDS011;33653;52.302;8.134;2023-08-31T14:28:40;1.00;;;0.60;;
47894;SDS011;33653;52.302;8.134;2023-08-31T14:31:09;0.57;;;0.50;;
47894;SDS011;33653;52.302;8.134;2023-08-31T14:33:51;0.93;;;0.60;;
47894;SDS011;33653;52.302;8.134;2023-08-31T14:36:25;4.30;;;0.80;;
47894;SDS011;33653;52.302;8.134;2023-08-31T14:41:45;1.85;;;0.68;;
47894;SDS011;33653;52.302;8.134;2023-08-31T14:44:16;1.33;;;0.70;;
47894;SDS011;33653;52.302;8.134;2023-08-31T14:46:45;1.55;;;0.80;;
47894;SDS011;33653;52.302;8.134;2023-08-31T14:49:16;2.75;;;0.82;;
47894;SDS011;33653;52.302;8.134;2023-08-31T14:51:52;0.90;;;0.70;;
47894;SDS011;33653;52.302;8.134;2023-08-31T14:54:23;1.58;;;0.90;;
47894;SDS011;33653;52.302;8.134;2023-08-31T15:02:47;1.08;;;0.60;;
47894;SDS011;33653;52.302;8.134;2023-08-31T15:08:50;2.90;;;0.90;;
47894;SDS011;33653;52.302;8.134;2023-08-31T15:11:22;2.55;;;0.65;;
47894;SDS011;33653;52.302;8.134;2023-08-31T15:13:50;0.70;;;0.70;;
47894;SDS011;33653;52.302;8.134;2023-08-31T15:16:24;2.70;;;1.20;;
47894;SDS011;33653;52.302;8.134;2023-08-31T15:22:01;1.83;;;1.00;;
47894;SDS011;33653;52.302;8.134;2023-08-31T15:24:31;1.70;;;0.80;;
47894;SDS011;33653;52.302;8.134;2023-08-31T15:27:09;2.58;;;1.10;;
47894;SDS011;33653;52.302;8.134;2023-08-31T15:29:48;0.85;;;0.75;;
47894;SDS011;33653;52.302;8.134;2023-08-31T15:32:30;1.95;;;1.00;;
47894;SDS011;33653;52.302;8.134;2023-08-31T15:35:04;1.10;;;0.90;;
47894;SDS011;33653;52.302;8.134;2023-08-31T15:40:59;2.72;;;1.02;;
47894;SDS011;33653;52.302;8.134;2023-08-31T15:43:30;2.45;;;1.02;;
47894;SDS011;33653;52.302;8.134;2023-08-31T15:46:03;1.00;;;0.57;;
47894;SDS011;33653;52.302;8.134;2023-08-31T15:51:30;2.53;;;1.02;;
47894;SDS011;33653;52.302;8.134;2023-08-31T15:54:04;3.47;;;1.10;;
47894;SDS011;33653;52.302;8.134;2023-08-31T15:56:38;2.78;;;1.20;;
47894;SDS011;33653;52.302;8.134;2023-08-31T15:59:06;1.40;;;0.80;;
47894;SDS011;33653;52.302;8.134;2023-08-31T16:01:42;1.73;;;0.60;;
47894;SDS011;33653;52.302;8.134;2023-08-31T16:04:10;1.38;;;0.70;;
47894;SDS011;33653;52.302;8.134;2023-08-31T16:06:44;1.95;;;0.98;;
47894;SDS011;33653;52.302;8.134;2023-08-31T16:09:12;1.48;;;0.75;;
47894;SDS011;33653;52.302;8.134;2023-08-31T16:11:41;1.38;;;0.98;;
47894;SDS011;33653;52.302;8.134;2023-08-31T16:14:30;0.70;;;0.55;;
47894;SDS011;33653;52.302;8.134;2023-08-31T16:16:59;0.80;;;0.57;;
47894;SDS011;33653;52.302;8.134;2023-08-31T16:19:42;1.38;;;0.60;;
47894;SDS011;33653;52.302;8.134;2023-08-31T16:25:05;1.85;;;0.70;;
47894;SDS011;33653;52.302;8.134;2023-08-31T16:27:48;2.10;;;0.90;;
47894;SDS011;33653;52.302;8.134;2023-08-31T16:30:17;0.95;;;0.70;;
47894;SDS011;33653;52.302;8.134;2023-08-31T16:32:52;2.90;;;0.70;;
47894;SDS011;33653;52.302;8.134;2023-08-31T16:35:31;2.10;;;0.65;;
47894;SDS011;33653;52.302;8.134;2023-08-31T16:38:04;2.45;;;0.68;;
47894;SDS011;33653;52.302;8.134;2023-08-31T16:40:49;1.00;;;0.50;;
47894;SDS011;33653;52.302;8.134;2023-08-31T16:46:38;3.13;;;0.77;;
47894;SDS011;33653;52.302;8.134;2023-08-31T16:49:09;1.20;;;0.68;;
47894;SDS011;33653;52.302;8.134;2023-08-31T16:51:40;0.98;;;0.52;;
47894;SDS011;33653;52.302;8.134;2023-08-31T16:54:08;3.45;;;0.90;;
47894;SDS011;33653;52.302;8.134;2023-08-31T16:56:39;1.52;;;0.60;;
47894;SDS011;33653;52.302;8.134;2023-08-31T16:59:08;0.90;;;0.55;;
47894;SDS011;33653;52.302;8.134;2023-08-31T17:01:36;0.98;;;0.57;;
47894;SDS011;33653;52.302;8.134;2023-08-31T17:04:10;1.30;;;0.60;;
47894;SDS011;33653;52.302;8.134;2023-08-31T17:06:44;1.90;;;0.85;;
47894;SDS011;33653;52.302;8.134;2023-08-31T17:09:15;0.98;;;0.60;;
47894;SDS011;33653;52.302;8.134;2023-08-31T17:11:45;0.30;;;0.30;;
47894;SDS011;33653;52.302;8.134;2023-08-31T17:14:13;3.45;;;0.70;;
47894;SDS011;33653;52.302;8.134;2023-08-31T17:20:02;0.82;;;0.47;;
47894;SDS011;33653;52.302;8.134;2023-08-31T17:22:37;2.95;;;0.77;;
47894;SDS011;33653;52.302;8.134;2023-08-31T17:25:19;0.73;;;0.63;;
47894;SDS011;33653;52.302;8.134;2023-08-31T17:27:51;1.45;;;0.70;;
47894;SDS011;33653;52.302;8.134;2023-08-31T17:30:25;3.70;;;0.60;;
47894;SDS011;33653;52.302;8.134;2023-08-31T17:33:01;0.85;;;0.60;;
47894;SDS011;33653;52.302;8.134;2023-08-31T17:38:53;4.75;;;1.13;;
47894;SDS011;33653;52.302;8.134;2023-08-31T17:41:21;2.55;;;0.80;;
47894;SDS011;33653;52.302;8.134;2023-08-31T17:46:25;2.30;;;0.57;;
47894;SDS011;33653;52.302;8.134;2023-08-31T17:48:57;0.80;;;0.60;;
47894;SDS011;33653;52.302;8.134;2023-08-31T17:51:36;0.90;;;0.70;;
47894;SDS011;33653;52.302;8.134;2023-08-31T17:54:04;1.40;;;0.80;;
47894;SDS011;33653;52.302;8.134;2023-08-31T17:56:33;2.83;;;0.70;;
47894;SDS011;33653;52.302;8.134;2023-08-31T17:59:05;2.72;;;0.80;;
47894;SDS011;33653;52.302;8.134;2023-08-31T18:01:43;1.85;;;0.90;;
47894;SDS011;33653;52.302;8.134;2023-08-31T18:04:15;5.22;;;1.00;;
47894;SDS011;33653;52.302;8.134;2023-08-31T18:07:02;3.35;;;0.90;;
47894;SDS011;33653;52.302;8.134;2023-08-31T18:09:34;3.20;;;1.02;;
47894;SDS011;33653;52.302;8.134;2023-08-31T18:12:06;2.92;;;1.10;;
47894;SDS011;33653;52.302;8.134;2023-08-31T18:14:36;3.50;;;1.05;;
47894;SDS011;33653;52.302;8.134;2023-08-31T18:17:04;2.10;;;0.73;;
47894;SDS011;33653;52.302;8.134;2023-08-31T18:19:34;1.02;;;0.90;;
47894;SDS011;33653;52.302;8.134;2023-08-31T18:24:57;2.75;;;0.70;;
47894;SDS011;33653;52.302;8.134;2023-08-31T18:27:25;2.40;;;1.40;;
47894;SDS011;33653;52.302;8.134;2023-08-31T18:29:54;4.40;;;1.23;;
47894;SDS011;33653;52.302;8.134;2023-08-31T18:32:22;1.60;;;0.93;;
47894;SDS011;33653;52.302;8.134;2023-08-31T18:34:51;2.88;;;1.20;;
47894;SDS011;33653;52.302;8.134;2023-08-31T18:40:14;1.60;;;0.90;;
47894;SDS011;33653;52.302;8.134;2023-08-31T18:42:42;3.42;;;1.15;;
47894;SDS011;33653;52.302;8.134;2023-08-31T18:45:10;2.45;;;1.05;;
47894;SDS011;33653;52.302;8.134;2023-08-31T18:47:40;4.90;;;1.03;;
47894;SDS011;33653;52.302;8.134;2023-08-31T18:50:09;4.28;;;1.40;;
47894;SDS011;33653;52.302;8.134;2023-08-31T18:52:37;5.97;;;1.58;;
47894;SDS011;33653;52.302;8.134;2023-08-31T18:55:13;2.15;;;1.40;;
47894;SDS011;33653;52.302;8.134;2023-08-31T18:57:43;4.85;;;1.45;;
47894;SDS011;33653;52.302;8.134;2023-08-31T19:00:17;2.30;;;0.95;;
47894;SDS011;33653;52.302;8.134;2023-08-31T19:02:45;2.40;;;0.80;;
47894;SDS011;33653;52.302;8.134;2023-08-31T19:05:14;3.15;;;1.30;;
47894;SDS011;33653;52.302;8.134;2023-08-31T19:07:42;1.80;;;1.30;;
47894;SDS011;33653;52.302;8.134;2023-08-31T19:10:13;2.13;;;0.95;;
47894;SDS011;33653;52.302;8.134;2023-08-31T19:12:43;1.33;;;1.23;;
47894;SDS011;33653;52.302;8.134;2023-08-31T19:15:14;2.53;;;0.95;;
47894;SDS011;33653;52.302;8.134;2023-08-31T19:17:44;2.08;;;0.95;;
47894;SDS011;33653;52.302;8.134;2023-08-31T19:20:14;1.58;;;1.05;;
47894;SDS011;33653;52.302;8.134;2023-08-31T19:22:46;2.83;;;1.00;;
47894;SDS011;33653;52.302;8.134;2023-08-31T19:25:14;2.88;;;1.10;;
47894;SDS011;33653;52.302;8.134;2023-08-31T19:30:39;1.95;;;1.33;;
47894;SDS011;33653;52.302;8.134;2023-08-31T19:33:08;3.33;;;1.58;;
47894;SDS011;33653;52.302;8.134;2023-08-31T19:35:43;2.13;;;1.20;;
47894;SDS011;33653;52.302;8.134;2023-08-31T19:38:25;1.08;;;0.98;;
47894;SDS011;33653;52.302;8.134;2023-08-31T19:40:53;1.13;;;1.02;;
47894;SDS011;33653;52.302;8.134;2023-08-31T19:43:23;5.85;;;1.45;;
47894;SDS011;33653;52.302;8.134;2023-08-31T19:45:52;1.40;;;1.15;;